sensor_id;sensor_type;location;lat;lon;timestamp;pressure;altitude;pressure_sealevel;temperature;humidity
66164;BME280;52962;51.088;3.096;2022-12-29T00:00:13;99726.94;;;10.68;100.00
66164;BME280;52962;51.088;3.096;2022-12-29T00:02:41;99732.19;;;10.64;100.00
66164;BME280;52962;51.088;3.096;2022-12-29T00:05:11;99733.94;;;10.63;100.00
66164;BME280;52962;51.088;3.096;2022-12-29T00:07:39;99728.69;;;10.62;100.00
66164;BME280;52962;51.088;3.096;2022-12-29T00:10:07;99724.28;;;10.64;100.00
66164;BME280;52962;51.088;3.096;2022-12-29T00:12:36;99726.91;;;10.61;100.00
66164;BME280;52962;51.088;3.096;2022-12-29T00:15:21;99728.66;;;10.59;100.00
66164;BME280;52962;51.088;3.096;2022-12-29T00:18:05;99731.31;;;10.65;100.00
66164;BME280;52962;51.088;3.096;2022-12-29T00:20:36;99712.00;;;10.66;100.00
66164;BME280;52962;51.088;3.096;2022-12-29T00:23:21;99722.53;;;10.66;100.00
66164;BME280;52962;51.088;3.096;2022-12-29T00:26:12;99722.53;;;10.64;100.00
66164;BME280;52962;51.088;3.096;2022-12-29T00:28:59;99711.13;;;10.61;100.00
66164;BME280;52962;51.088;3.096;2022-12-29T00:31:45;99719.03;;;10.62;100.00
66164;BME280;52962;51.088;3.096;2022-12-29T00:34:30;99709.38;;;10.63;100.00
66164;BME280;52962;51.088;3.096;2022-12-29T00:37:17;99713.75;;;10.64;100.00
66164;BME280;52962;51.088;3.096;2022-12-29T00:40:06;99717.25;;;10.60;100.00
66164;BME280;52962;51.088;3.096;2022-12-29T00:42:52;99711.13;;;10.61;100.00
66164;BME280;52962;51.088;3.096;2022-12-29T00:45:40;99708.50;;;10.61;100.00
66164;BME280;52962;51.088;3.096;2022-12-29T00:48:08;99713.78;;;10.67;100.00
66164;BME280;52962;51.088;3.096;2022-12-29T00:50:36;99722.53;;;10.66;100.00
66164;BME280;52962;51.088;3.096;2022-12-29T00:53:05;99727.78;;;10.55;100.00
66164;BME280;52962;51.088;3.096;2022-12-29T00:55:36;99726.88;;;10.50;100.00
66164;BME280;52962;51.088;3.096;2022-12-29T00:58:05;99732.09;;;10.24;100.00
66164;BME280;52962;51.088;3.096;2022-12-29T01:00:33;99722.25;;;9.91;100.00
66164;BME280;52962;51.088;3.096;2022-12-29T01:03:01;99721.31;;;9.80;100.00
66164;BME280;52962;51.088;3.096;2022-12-29T01:05:29;99724.72;;;9.64;100.00
66164;BME280;52962;51.088;3.096;2022-12-29T01:07:57;99718.47;;;9.43;100.00
66164;BME280;52962;51.088;3.096;2022-12-29T01:10:27;99730.66;;;9.37;100.00
66164;BME280;52962;51.088;3.096;2022-12-29T01:12:55;99725.44;;;9.40;100.00
66164;BME280;52962;51.088;3.096;2022-12-29T01:15:23;99730.88;;;9.67;100.00
66164;BME280;52962;51.088;3.096;2022-12-29T01:17:51;99722.16;;;9.71;100.00
66164;BME280;52962;51.088;3.096;2022-12-29T01:20:19;99716.03;;;9.74;100.00
66164;BME280;52962;51.088;3.096;2022-12-29T01:22:47;99711.66;;;9.77;100.00
66164;BME280;52962;51.088;3.096;2022-12-29T01:25:19;99727.47;;;9.80;100.00
66164;BME280;52962;51.088;3.096;2022-12-29T01:27:48;99726.63;;;9.91;100.00
66164;BME280;52962;51.088;3.096;2022-12-29T01:30:16;99711.66;;;9.74;100.00
66164;BME280;52962;51.088;3.096;2022-12-29T01:32:44;99706.34;;;9.68;100.00
66164;BME280;52962;51.088;3.096;2022-12-29T01:35:12;99710.75;;;9.72;100.00
66164;BME280;52962;51.088;3.096;2022-12-29T01:37:40;99706.41;;;9.77;100.00
66164;BME280;52962;51.088;3.096;2022-12-29T01:40:09;99700.31;;;9.81;100.00
66164;BME280;52962;51.088;3.096;2022-12-29T01:42:38;99693.31;;;9.85;100.00
66164;BME280;52962;51.088;3.096;2022-12-29T01:45:11;99684.53;;;9.86;100.00
66164;BME280;52962;51.088;3.096;2022-12-29T01:47:43;99702.09;;;9.90;100.00
66164;BME280;52962;51.088;3.096;2022-12-29T01:50:20;99703.00;;;9.94;100.00
66164;BME280;52962;51.088;3.096;2022-12-29T01:52:54;99703.00;;;9.94;100.00
66164;BME280;52962;51.088;3.096;2022-12-29T01:55:24;99703.00;;;9.94;100.00
66164;BME280;52962;51.088;3.096;2022-12-29T01:57:56;99702.09;;;9.93;100.00
66164;BME280;52962;51.088;3.096;2022-12-29T02:00:27;99706.50;;;9.93;100.00
66164;BME280;52962;51.088;3.096;2022-12-29T02:02:55;99703.88;;;9.93;100.00
66164;BME280;52962;51.088;3.096;2022-12-29T02:05:27;99706.50;;;9.94;100.00
66164;BME280;52962;51.088;3.096;2022-12-29T02:07:57;99694.19;;;9.89;100.00
66164;BME280;52962;51.088;3.096;2022-12-29T02:10:26;99698.56;;;9.85;100.00
66164;BME280;52962;51.088;3.096;2022-12-29T02:12:56;99712.59;;;9.89;100.00
66164;BME280;52962;51.088;3.096;2022-12-29T02:15:35;99705.59;;;9.88;100.00
66164;BME280;52962;51.088;3.096;2022-12-29T02:18:15;99710.84;;;9.84;100.00
66164;BME280;52962;51.088;3.096;2022-12-29T02:21:14;99697.69;;;9.88;100.00
66164;BME280;52962;51.088;3.096;2022-12-29T02:27:24;99707.25;;;9.73;100.00
66164;BME280;52962;51.088;3.096;2022-12-29T02:30:04;99700.22;;;9.66;100.00
66164;BME280;52962;51.088;3.096;2022-12-29T02:32:39;99698.41;;;9.59;100.00
66164;BME280;52962;51.088;3.096;2022-12-29T02:35:15;99693.16;;;9.58;100.00
66164;BME280;52962;51.088;3.096;2022-12-29T02:37:56;99693.13;;;9.51;100.00
66164;BME280;52962;51.088;3.096;2022-12-29T02:40:35;99686.09;;;9.52;100.00
66164;BME280;52962;51.088;3.096;2022-12-29T02:43:13;99689.59;;;9.49;100.00
66164;BME280;52962;51.088;3.096;2022-12-29T02:45:47;99690.50;;;9.53;100.00
66164;BME280;52962;51.088;3.096;2022-12-29T02:48:21;99700.13;;;9.52;100.00
66164;BME280;52962;51.088;3.096;2022-12-29T02:50:57;99682.59;;;9.51;100.00
66164;BME280;52962;51.088;3.096;2022-12-29T02:53:28;99686.97;;;9.49;100.00
66164;BME280;52962;51.088;3.096;2022-12-29T02:56:15;99674.69;;;9.48;100.00
66164;BME280;52962;51.088;3.096;2022-12-29T02:58:45;99680.81;;;9.47;100.00
66164;BME280;52962;51.088;3.096;2022-12-29T03:01:23;99689.59;;;9.48;100.00
66164;BME280;52962;51.088;3.096;2022-12-29T03:04:13;99658.97;;;9.53;100.00
66164;BME280;52962;51.088;3.096;2022-12-29T03:06:52;99664.28;;;9.65;100.00
66164;BME280;52962;51.088;3.096;2022-12-29T03:09:31;99670.47;;;9.76;100.00
66164;BME280;52962;51.088;3.096;2022-12-29T03:12:13;99679.28;;;9.86;100.00
66164;BME280;52962;51.088;3.096;2022-12-29T03:14:55;99679.28;;;9.84;100.00
66164;BME280;52962;51.088;3.096;2022-12-29T03:17:51;99683.69;;;9.89;100.00
66164;BME280;52962;51.088;3.096;2022-12-29T03:20:35;99675.78;;;9.89;100.00
66164;BME280;52962;51.088;3.096;2022-12-29T03:23:07;99669.66;;;9.87;100.00
66164;BME280;52962;51.088;3.096;2022-12-29T03:25:39;99664.41;;;9.91;100.00
66164;BME280;52962;51.088;3.096;2022-12-29T03:28:12;99685.47;;;9.96;100.00
66164;BME280;52962;51.088;3.096;2022-12-29T03:30:46;99686.34;;;9.99;100.00
66164;BME280;52962;51.088;3.096;2022-12-29T03:33:19;99670.63;;;10.07;100.00
66164;BME280;52962;51.088;3.096;2022-12-29T03:35:55;99671.50;;;10.09;100.00
66164;BME280;52962;51.088;3.096;2022-12-29T03:38:31;99676.75;;;10.12;100.00
66164;BME280;52962;51.088;3.096;2022-12-29T03:41:04;99673.28;;;10.19;100.00
66164;BME280;52962;51.088;3.096;2022-12-29T03:43:35;99671.50;;;10.12;100.00
66164;BME280;52962;51.088;3.096;2022-12-29T03:46:03;99682.88;;;10.08;100.00
66164;BME280;52962;51.088;3.096;2022-12-29T03:48:32;99681.09;;;9.99;100.00
66164;BME280;52962;51.088;3.096;2022-12-29T03:51:02;99668.84;;;10.01;100.00
66164;BME280;52962;51.088;3.096;2022-12-29T03:53:30;99667.06;;;9.96;100.00
66164;BME280;52962;51.088;3.096;2022-12-29T03:55:59;99671.44;;;9.94;100.00
66164;BME280;52962;51.088;3.096;2022-12-29T03:58:28;99667.94;;;9.95;100.00
66164;BME280;52962;51.088;3.096;2022-12-29T04:01:19;99668.81;;;9.95;100.00
66164;BME280;52962;51.088;3.096;2022-12-29T04:03:47;99678.47;;;9.98;100.00
66164;BME280;52962;51.088;3.096;2022-12-29T04:06:17;99671.44;;;9.94;100.00
66164;BME280;52962;51.088;3.096;2022-12-29T04:08:50;99683.72;;;9.98;100.00
66164;BME280;52962;51.088;3.096;2022-12-29T04:11:18;99665.28;;;9.93;100.00
66164;BME280;52962;51.088;3.096;2022-12-29T04:13:47;99677.63;;;10.05;100.00
66164;BME280;52962;51.088;3.096;2022-12-29T04:16:18;99682.00;;;10.07;100.00
66164;BME280;52962;51.088;3.096;2022-12-29T04:18:47;99683.75;;;10.07;100.00
66164;BME280;52962;51.088;3.096;2022-12-29T04:21:16;99687.25;;;10.04;100.00
66164;BME280;52962;51.088;3.096;2022-12-29T04:23:45;99692.50;;;10.00;100.00
66164;BME280;52962;51.088;3.096;2022-12-29T04:26:15;99695.09;;;9.95;100.00
66164;BME280;52962;51.088;3.096;2022-12-29T04:29:00;99698.59;;;9.91;100.00
66164;BME280;52962;51.088;3.096;2022-12-29T04:31:31;99695.13;;;9.97;100.00
66164;BME280;52962;51.088;3.096;2022-12-29T04:34:00;99706.53;;;10.05;100.00
66164;BME280;52962;51.088;3.096;2022-12-29T04:36:30;99703.03;;;10.06;100.00
66164;BME280;52962;51.088;3.096;2022-12-29T04:38:58;99703.06;;;10.09;100.00
66164;BME280;52962;51.088;3.096;2022-12-29T04:41:27;99706.59;;;10.14;100.00
66164;BME280;52962;51.088;3.096;2022-12-29T04:43:55;99706.56;;;10.11;100.00
66164;BME280;52962;51.088;3.096;2022-12-29T04:46:58;99701.31;;;10.14;100.00
66164;BME280;52962;51.088;3.096;2022-12-29T04:49:43;99707.47;;;10.18;100.00
66164;BME280;52962;51.088;3.096;2022-12-29T04:52:41;99708.41;;;10.20;100.00
66164;BME280;52962;51.088;3.096;2022-12-29T04:55:12;99692.53;;;10.09;100.00
66164;BME280;52962;51.088;3.096;2022-12-29T04:57:40;99706.53;;;10.05;100.00
66164;BME280;52962;51.088;3.096;2022-12-29T05:00:13;99689.88;;;10.00;100.00
66164;BME280;52962;51.088;3.096;2022-12-29T05:02:41;99685.50;;;10.00;100.00
66164;BME280;52962;51.088;3.096;2022-12-29T05:05:10;99684.59;;;10.00;100.00
66164;BME280;52962;51.088;3.096;2022-12-29T05:07:43;99695.16;;;10.04;100.00
66164;BME280;52962;51.088;3.096;2022-12-29T05:10:11;99717.97;;;10.08;100.00
66164;BME280;52962;51.088;3.096;2022-12-29T05:12:40;99720.59;;;10.08;100.00
66164;BME280;52962;51.088;3.096;2022-12-29T05:15:09;99724.94;;;9.99;100.00
66164;BME280;52962;51.088;3.096;2022-12-29T05:17:37;99738.03;;;9.90;100.00
66164;BME280;52962;51.088;3.096;2022-12-29T05:20:08;99751.06;;;9.73;100.00
66164;BME280;52962;51.088;3.096;2022-12-29T05:22:36;99749.16;;;9.50;100.00
66164;BME280;52962;51.088;3.096;2022-12-29T05:25:09;99751.81;;;9.55;100.00
66164;BME280;52962;51.088;3.096;2022-12-29T05:27:51;99756.28;;;9.67;100.00
66164;BME280;52962;51.088;3.096;2022-12-29T05:30:38;99748.44;;;9.71;100.00
66164;BME280;52962;51.088;3.096;2022-12-29T05:33:06;99759.06;;;9.87;100.00
66164;BME280;52962;51.088;3.096;2022-12-29T05:35:34;99760.81;;;9.88;100.00
66164;BME280;52962;51.088;3.096;2022-12-29T05:38:02;99759.97;;;9.96;100.00
66164;BME280;52962;51.088;3.096;2022-12-29T05:40:32;99764.38;;;9.99;100.00
66164;BME280;52962;51.088;3.096;2022-12-29T05:43:04;99768.75;;;9.95;100.00
66164;BME280;52962;51.088;3.096;2022-12-29T05:46:07;99760.88;;;10.01;100.00
66164;BME280;52962;51.088;3.096;2022-12-29T05:48:53;99774.06;;;10.07;100.00
66164;BME280;52962;51.088;3.096;2022-12-29T05:51:33;99776.69;;;10.06;100.00
66164;BME280;52962;51.088;3.096;2022-12-29T05:54:02;99770.59;;;10.13;100.00
66164;BME280;52962;51.088;3.096;2022-12-29T05:56:31;99767.94;;;10.08;100.00
66164;BME280;52962;51.088;3.096;2022-12-29T05:59:00;99773.22;;;10.10;100.00
66164;BME280;52962;51.088;3.096;2022-12-29T06:01:29;99768.84;;;10.13;100.00
66164;BME280;52962;51.088;3.096;2022-12-29T06:03:57;99770.56;;;10.05;100.00
66164;BME280;52962;51.088;3.096;2022-12-29T06:06:25;99760.91;;;10.06;100.00
66164;BME280;52962;51.088;3.096;2022-12-29T06:08:53;99767.91;;;10.04;100.00
66164;BME280;52962;51.088;3.096;2022-12-29T06:11:21;99769.63;;;9.96;100.00
66164;BME280;52962;51.088;3.096;2022-12-29T06:13:55;99775.78;;;9.98;100.00
66164;BME280;52962;51.088;3.096;2022-12-29T06:16:23;99766.03;;;9.84;100.00
66164;BME280;52962;51.088;3.096;2022-12-29T06:18:55;99780.94;;;9.86;100.00
66164;BME280;52962;51.088;3.096;2022-12-29T06:21:24;99777.44;;;9.85;100.00
66164;BME280;52962;51.088;3.096;2022-12-29T06:23:52;99799.28;;;9.76;100.00
66164;BME280;52962;51.088;3.096;2022-12-29T06:26:20;99786.97;;;9.69;100.00
66164;BME280;52962;51.088;3.096;2022-12-29T06:28:48;99788.72;;;9.67;100.00
66164;BME280;52962;51.088;3.096;2022-12-29T06:31:17;99790.44;;;9.64;100.00
66164;BME280;52962;51.088;3.096;2022-12-29T06:33:47;99783.47;;;9.67;100.00
66164;BME280;52962;51.088;3.096;2022-12-29T06:36:16;99781.69;;;9.63;100.00
66164;BME280;52962;51.088;3.096;2022-12-29T06:38:44;99787.78;;;9.59;100.00
66164;BME280;52962;51.088;3.096;2022-12-29T06:41:12;99790.44;;;9.62;100.00
66164;BME280;52962;51.088;3.096;2022-12-29T06:43:59;99797.41;;;9.57;100.00
66164;BME280;52962;51.088;3.096;2022-12-29T06:46:58;99793.88;;;9.55;100.00
66164;BME280;52962;51.088;3.096;2022-12-29T06:49:26;99785.16;;;9.62;100.00
66164;BME280;52962;51.088;3.096;2022-12-29T06:51:53;99782.56;;;9.65;100.00
66164;BME280;52962;51.088;3.096;2022-12-29T06:54:22;99786.16;;;9.78;100.00
66164;BME280;52962;51.088;3.096;2022-12-29T06:56:50;99783.56;;;9.82;100.00
66164;BME280;52962;51.088;3.096;2022-12-29T06:59:18;99780.09;;;9.90;100.00
66164;BME280;52962;51.088;3.096;2022-12-29T07:01:46;99781.91;;;9.97;100.00
66164;BME280;52962;51.088;3.096;2022-12-29T07:04:16;99775.75;;;9.96;100.00
66164;BME280;52962;51.088;3.096;2022-12-29T07:06:44;99773.19;;;10.04;100.00
66164;BME280;52962;51.088;3.096;2022-12-29T07:09:12;99785.47;;;10.08;100.00
66164;BME280;52962;51.088;3.096;2022-12-29T07:11:40;99782.84;;;10.09;100.00
66164;BME280;52962;51.088;3.096;2022-12-29T07:14:09;99791.63;;;10.08;100.00
66164;BME280;52962;51.088;3.096;2022-12-29T07:16:38;99769.69;;;10.11;100.00
66164;BME280;52962;51.088;3.096;2022-12-29T07:19:06;99782.00;;;10.13;100.00
66164;BME280;52962;51.088;3.096;2022-12-29T07:21:36;99778.47;;;10.11;100.00
66164;BME280;52962;51.088;3.096;2022-12-29T07:24:04;99795.13;;;10.10;100.00
66164;BME280;52962;51.088;3.096;2022-12-29T07:26:33;99810.88;;;10.06;100.00
66164;BME280;52962;51.088;3.096;2022-12-29T07:29:03;99804.63;;;9.89;100.00
66164;BME280;52962;51.088;3.096;2022-12-29T07:31:31;99809.78;;;9.70;100.00
66164;BME280;52962;51.088;3.096;2022-12-29T07:33:59;99832.44;;;9.58;100.00
66164;BME280;52962;51.088;3.096;2022-12-29T07:36:27;99831.38;;;9.33;100.00
66164;BME280;52962;51.088;3.096;2022-12-29T07:39:02;99825.16;;;9.23;100.00
66164;BME280;52962;51.088;3.096;2022-12-29T07:41:32;99842.56;;;9.13;100.00
66164;BME280;52962;51.088;3.096;2022-12-29T07:44:01;99855.66;;;9.07;100.00
66164;BME280;52962;51.088;3.096;2022-12-29T07:46:43;99863.56;;;9.10;100.00
66164;BME280;52962;51.088;3.096;2022-12-29T07:49:22;99869.63;;;9.05;100.00
66164;BME280;52962;51.088;3.096;2022-12-29T07:51:50;99871.25;;;8.94;100.00
66164;BME280;52962;51.088;3.096;2022-12-29T07:54:20;99879.03;;;8.86;100.00
66164;BME280;52962;51.088;3.096;2022-12-29T07:56:50;99889.50;;;8.83;100.00
66164;BME280;52962;51.088;3.096;2022-12-29T07:59:18;99880.75;;;8.82;100.00
66164;BME280;52962;51.088;3.096;2022-12-29T08:01:46;99887.78;;;8.85;100.00
66164;BME280;52962;51.088;3.096;2022-12-29T08:04:14;99900.88;;;8.82;100.00
66164;BME280;52962;51.088;3.096;2022-12-29T08:06:42;99918.34;;;8.81;100.00
66164;BME280;52962;51.088;3.096;2022-12-29T08:09:12;99912.22;;;8.81;100.00
66164;BME280;52962;51.088;3.096;2022-12-29T08:11:49;99918.38;;;8.83;100.00
66164;BME280;52962;51.088;3.096;2022-12-29T08:14:18;99920.09;;;8.81;100.00
66164;BME280;52962;51.088;3.096;2022-12-29T08:16:46;99914.84;;;8.81;100.00
66164;BME280;52962;51.088;3.096;2022-12-29T08:19:14;99933.19;;;8.78;100.00
66164;BME280;52962;51.088;3.096;2022-12-29T08:21:42;99926.19;;;8.78;100.00
66164;BME280;52962;51.088;3.096;2022-12-29T08:24:11;99930.63;;;8.82;100.00
66164;BME280;52962;51.088;3.096;2022-12-29T08:26:39;99933.28;;;8.85;100.00
66164;BME280;52962;51.088;3.096;2022-12-29T08:29:08;99932.41;;;8.85;100.00
66164;BME280;52962;51.088;3.096;2022-12-29T08:31:37;99939.44;;;8.88;100.00
66164;BME280;52962;51.088;3.096;2022-12-29T08:34:05;99949.97;;;8.91;100.00
66164;BME280;52962;51.088;3.096;2022-12-29T08:36:33;99978.03;;;8.95;100.00
66164;BME280;52962;51.088;3.096;2022-12-29T08:39:01;99972.78;;;8.95;100.00
66164;BME280;52962;51.088;3.096;2022-12-29T08:41:29;99975.44;;;8.96;100.00
66164;BME280;52962;51.088;3.096;2022-12-29T08:43:59;99976.28;;;8.95;100.00
66164;BME280;52962;51.088;3.096;2022-12-29T08:46:28;99984.22;;;8.98;100.00
66164;BME280;52962;51.088;3.096;2022-12-29T08:48:56;99988.63;;;9.01;100.00
66164;BME280;52962;51.088;3.096;2022-12-29T08:51:25;99991.28;;;9.02;100.00
66164;BME280;52962;51.088;3.096;2022-12-29T08:53:53;100005.25;;;9.01;100.00
66164;BME280;52962;51.088;3.096;2022-12-29T08:56:21;100019.34;;;9.06;100.00
66164;BME280;52962;51.088;3.096;2022-12-29T08:58:54;99999.22;;;9.08;100.00
66164;BME280;52962;51.088;3.096;2022-12-29T09:01:23;100011.53;;;9.11;100.00
66164;BME280;52962;51.088;3.096;2022-12-29T09:03:53;100003.72;;;9.17;100.00
66164;BME280;52962;51.088;3.096;2022-12-29T09:06:42;100017.78;;;9.21;100.00
66164;BME280;52962;51.088;3.096;2022-12-29T09:09:10;100020.44;;;9.24;100.00
66164;BME280;52962;51.088;3.096;2022-12-29T09:11:38;100029.31;;;9.33;100.00
66164;BME280;52962;51.088;3.096;2022-12-29T09:14:06;100024.19;;;9.47;100.00
66164;BME280;52962;51.088;3.096;2022-12-29T09:16:35;100035.69;;;9.55;100.00
66164;BME280;52962;51.088;3.096;2022-12-29T09:19:05;100037.41;;;9.53;100.00
66164;BME280;52962;51.088;3.096;2022-12-29T09:21:33;100039.97;;;9.48;100.00
66164;BME280;52962;51.088;3.096;2022-12-29T09:24:01;100050.44;;;9.44;100.00
66164;BME280;52962;51.088;3.096;2022-12-29T09:26:29;100050.47;;;9.47;100.00
66164;BME280;52962;51.088;3.096;2022-12-29T09:28:57;100052.25;;;9.49;100.00
66164;BME280;52962;51.088;3.096;2022-12-29T09:31:25;100054.00;;;9.49;100.00
66164;BME280;52962;51.088;3.096;2022-12-29T09:33:53;100064.59;;;9.55;100.00
66164;BME280;52962;51.088;3.096;2022-12-29T09:36:23;100070.75;;;9.57;100.00
66164;BME280;52962;51.088;3.096;2022-12-29T09:38:52;100072.56;;;9.61;100.00
66164;BME280;52962;51.088;3.096;2022-12-29T09:41:25;100072.59;;;9.64;100.00
66164;BME280;52962;51.088;3.096;2022-12-29T09:44:03;100075.22;;;9.64;100.00
66164;BME280;52962;51.088;3.096;2022-12-29T09:46:37;100082.25;;;9.67;100.00
66164;BME280;52962;51.088;3.096;2022-12-29T09:49:16;100076.97;;;9.64;100.00
66164;BME280;52962;51.088;3.096;2022-12-29T09:51:53;100073.34;;;9.56;100.00
66164;BME280;52962;51.088;3.096;2022-12-29T09:54:34;100093.63;;;9.64;100.00
66164;BME280;52962;51.088;3.096;2022-12-29T09:57:15;100104.22;;;9.70;100.00
66164;BME280;52962;51.088;3.096;2022-12-29T09:59:45;100107.88;;;9.84;100.00
66164;BME280;52962;51.088;3.096;2022-12-29T10:02:34;100114.22;;;10.02;100.00
66164;BME280;52962;51.088;3.096;2022-12-29T10:05:13;100107.44;;;10.21;100.00
66164;BME280;52962;51.088;3.096;2022-12-29T10:07:52;100121.59;;;10.33;100.00
66164;BME280;52962;51.088;3.096;2022-12-29T10:10:33;100122.50;;;10.35;100.00
66164;BME280;52962;51.088;3.096;2022-12-29T10:13:20;100141.75;;;10.31;100.00
66164;BME280;52962;51.088;3.096;2022-12-29T10:16:00;100137.44;;;10.42;100.00
66164;BME280;52962;51.088;3.096;2022-12-29T10:18:54;100141.81;;;10.40;100.00
66164;BME280;52962;51.088;3.096;2022-12-29T10:21:37;100144.38;;;10.30;100.00
66164;BME280;52962;51.088;3.096;2022-12-29T10:24:13;100149.56;;;10.24;100.00
66164;BME280;52962;51.088;3.096;2022-12-29T10:26:43;100149.44;;;10.16;100.00
66164;BME280;52962;51.088;3.096;2022-12-29T10:29:16;100150.47;;;10.27;100.00
66164;BME280;52962;51.088;3.096;2022-12-29T10:31:48;100158.44;;;10.32;100.00
66164;BME280;52962;51.088;3.096;2022-12-29T10:34:21;100154.84;;;10.25;100.00
66164;BME280;52962;51.088;3.096;2022-12-29T10:36:54;100162.59;;;10.16;100.00
66164;BME280;52962;51.088;3.096;2022-12-29T10:39:30;100152.88;;;10.09;100.00
66164;BME280;52962;51.088;3.096;2022-12-29T10:42:07;100158.94;;;10.03;100.00
66164;BME280;52962;51.088;3.096;2022-12-29T10:44:37;100165.97;;;10.03;100.00
66164;BME280;52962;51.088;3.096;2022-12-29T10:47:11;100185.28;;;10.05;100.00
66164;BME280;52962;51.088;3.096;2022-12-29T10:49:43;100184.41;;;10.06;100.00
66164;BME280;52962;51.088;3.096;2022-12-29T10:52:13;100186.13;;;10.02;100.00
66164;BME280;52962;51.088;3.096;2022-12-29T10:54:47;100182.47;;;9.91;100.00
66164;BME280;52962;51.088;3.096;2022-12-29T10:57:23;100181.72;;;10.00;100.00
66164;BME280;52962;51.088;3.096;2022-12-29T10:59:52;100186.97;;;10.00;100.00
66164;BME280;52962;51.088;3.096;2022-12-29T11:02:40;100172.88;;;9.95;100.00
66164;BME280;52962;51.088;3.096;2022-12-29T11:05:18;100170.13;;;9.84;100.00
66164;BME280;52962;51.088;3.096;2022-12-29T11:07:50;100184.13;;;9.83;100.00
66164;BME280;52962;51.088;3.096;2022-12-29T11:10:34;100171.97;;;9.91;100.00
66164;BME280;52962;51.088;3.096;2022-12-29T11:13:04;100173.78;;;9.97;100.00
66164;BME280;52962;51.088;3.096;2022-12-29T11:15:39;100174.66;;;9.96;100.00
66164;BME280;52962;51.088;3.096;2022-12-29T11:18:19;100174.78;;;10.06;100.00
66164;BME280;52962;51.088;3.096;2022-12-29T11:20:49;100176.47;;;10.03;100.00
66164;BME280;52962;51.088;3.096;2022-12-29T11:23:24;100177.44;;;10.09;100.00
66164;BME280;52962;51.088;3.096;2022-12-29T11:26:16;100178.53;;;10.25;100.00
66164;BME280;52962;51.088;3.096;2022-12-29T11:28:46;100192.56;;;10.24;100.00
66164;BME280;52962;51.088;3.096;2022-12-29T11:31:18;100185.69;;;10.38;100.00
66164;BME280;52962;51.088;3.096;2022-12-29T11:33:49;100184.81;;;10.39;100.00
66164;BME280;52962;51.088;3.096;2022-12-29T11:36:21;100189.19;;;10.37;100.00
66164;BME280;52962;51.088;3.096;2022-12-29T11:38:52;100192.63;;;10.30;100.00
66164;BME280;52962;51.088;3.096;2022-12-29T11:41:25;100195.31;;;10.36;100.00
66164;BME280;52962;51.088;3.096;2022-12-29T11:43:56;100196.16;;;10.32;100.00
66164;BME280;52962;51.088;3.096;2022-12-29T11:46:27;100204.91;;;10.31;100.00
66164;BME280;52962;51.088;3.096;2022-12-29T11:48:58;100208.50;;;10.42;100.00
66164;BME280;52962;51.088;3.096;2022-12-29T11:51:29;100211.13;;;10.36;100.00
66164;BME280;52962;51.088;3.096;2022-12-29T11:54:00;100204.91;;;10.31;100.00
66164;BME280;52962;51.088;3.096;2022-12-29T11:56:37;100208.47;;;10.36;100.00
66164;BME280;52962;51.088;3.096;2022-12-29T11:59:37;100206.66;;;10.29;100.00
66164;BME280;52962;51.088;3.096;2022-12-29T12:02:36;100197.91;;;10.33;100.00
66164;BME280;52962;51.088;3.096;2022-12-29T12:05:14;100209.53;;;10.55;100.00
66164;BME280;52962;51.088;3.096;2022-12-29T12:07:47;100210.41;;;10.56;100.00
66164;BME280;52962;51.088;3.096;2022-12-29T12:10:21;100224.53;;;10.64;100.00
66164;BME280;52962;51.088;3.096;2022-12-29T12:12:58;100207.88;;;10.66;100.00
66164;BME280;52962;51.088;3.096;2022-12-29T12:15:34;100205.28;;;10.69;100.00
66164;BME280;52962;51.088;3.096;2022-12-29T12:18:17;100214.00;;;10.64;100.00
66164;BME280;52962;51.088;3.096;2022-12-29T12:20:50;100205.31;;;10.71;100.00
66164;BME280;52962;51.088;3.096;2022-12-29T12:23:31;100218.50;;;10.75;100.00
66164;BME280;52962;51.088;3.096;2022-12-29T12:26:11;100215.78;;;10.66;100.00
66164;BME280;52962;51.088;3.096;2022-12-29T12:28:49;100226.25;;;10.59;100.00
66164;BME280;52962;51.088;3.096;2022-12-29T12:31:31;100220.81;;;10.43;100.00
66164;BME280;52962;51.088;3.096;2022-12-29T12:34:08;100215.56;;;10.46;100.00
66164;BME280;52962;51.088;3.096;2022-12-29T12:36:58;100219.06;;;10.45;100.00
66164;BME280;52962;51.088;3.096;2022-12-29T12:39:38;100220.78;;;10.40;100.00
66164;BME280;52962;51.088;3.096;2022-12-29T12:42:25;100232.97;;;10.29;100.00
66164;BME280;52962;51.088;3.096;2022-12-29T12:45:17;100240.78;;;10.23;100.00
66164;BME280;52962;51.088;3.096;2022-12-29T12:48:00;100238.81;;;10.10;100.00
66164;BME280;52962;51.088;3.096;2022-12-29T12:50:48;100237.88;;;10.05;100.00
66164;BME280;52962;51.088;3.096;2022-12-29T12:53:30;100244.97;;;10.09;100.00
66164;BME280;52962;51.088;3.096;2022-12-29T12:56:16;100240.53;;;10.05;100.00
66164;BME280;52962;51.088;3.096;2022-12-29T12:58:52;100251.88;;;10.01;100.00
66164;BME280;52962;51.088;3.096;2022-12-29T13:01:38;100245.63;;;9.94;100.00
66164;BME280;52962;51.088;3.096;2022-12-29T13:04:26;100252.56;;;9.88;100.00
66164;BME280;52962;51.088;3.096;2022-12-29T13:07:09;100242.06;;;9.89;100.00
66164;BME280;52962;51.088;3.096;2022-12-29T13:09:54;100249.75;;;9.75;100.00
66164;BME280;52962;51.088;3.096;2022-12-29T13:12:36;100222.19;;;9.47;100.00
66164;BME280;52962;51.088;3.096;2022-12-29T13:15:14;100244.59;;;9.23;100.00
66164;BME280;52962;51.088;3.096;2022-12-29T13:17:52;100250.50;;;9.09;100.00
66164;BME280;52962;51.088;3.096;2022-12-29T13:20:29;100245.25;;;9.09;100.00
66164;BME280;52962;51.088;3.096;2022-12-29T13:23:05;100251.56;;;9.21;100.00
66164;BME280;52962;51.088;3.096;2022-12-29T13:25:40;100262.31;;;9.34;100.00
66164;BME280;52962;51.088;3.096;2022-12-29T13:28:16;100268.31;;;9.27;100.00
66164;BME280;52962;51.088;3.096;2022-12-29T13:30:54;100271.81;;;9.26;100.00